Terminal Aerodrome Forecast
Issued by NWS

Home | Current Version | Previous Version | Text Only | Print | Product List | Glossary On
Versions: 1 2 3 4 5 6 7 8 9 10 11 12
000
FTUS45 KRIW 232324
TAFPNA
TAF
KPNA 232324Z 2400/2424 31007KT P6SM VCSH SCT060 OVC100
     FM240500 29009KT P6SM SCT120
     FM241900 23015KT P6SM FEW120
     FM242200 29018G30KT P6SM BKN120
      AMD LTD TO CLD VIS AND WIND=

USA.gov is the U.S. government's official web portal to all federal, state and local government web resources and services.